sensor_id;sensor_type;location;lat;lon;timestamp;P1;durP1;ratioP1;P2;durP2;ratioP2
35418;SDS011;21525;41.240;16.500;2023-03-21T00:01:37;39.85;;;32.13;;
35418;SDS011;21525;41.240;16.500;2023-03-21T00:04:02;43.03;;;33.13;;
35418;SDS011;21525;41.240;16.500;2023-03-21T00:06:28;41.90;;;32.40;;
35418;SDS011;21525;41.240;16.500;2023-03-21T00:08:55;38.65;;;32.60;;
35418;SDS011;21525;41.240;16.500;2023-03-21T00:11:21;42.85;;;32.45;;
35418;SDS011;21525;41.240;16.500;2023-03-21T00:13:47;42.00;;;32.80;;
35418;SDS011;21525;41.240;16.500;2023-03-21T00:16:13;40.42;;;30.95;;
35418;SDS011;21525;41.240;16.500;2023-03-21T00:18:45;41.00;;;31.63;;
35418;SDS011;21525;41.240;16.500;2023-03-21T00:21:13;42.00;;;31.48;;
35418;SDS011;21525;41.240;16.500;2023-03-21T00:23:41;42.40;;;30.58;;
35418;SDS011;21525;41.240;16.500;2023-03-21T00:26:08;41.33;;;31.75;;
35418;SDS011;21525;41.240;16.500;2023-03-21T00:28:38;38.53;;;30.35;;
35418;SDS011;21525;41.240;16.500;2023-03-21T00:31:05;39.25;;;30.30;;
35418;SDS011;21525;41.240;16.500;2023-03-21T00:33:31;40.08;;;30.33;;
35418;SDS011;21525;41.240;16.500;2023-03-21T00:35:59;40.08;;;30.55;;
35418;SDS011;21525;41.240;16.500;2023-03-21T00:38:25;41.28;;;30.95;;
35418;SDS011;21525;41.240;16.500;2023-03-21T00:40:51;39.60;;;30.80;;
35418;SDS011;21525;41.240;16.500;2023-03-21T00:43:17;43.88;;;30.67;;
35418;SDS011;21525;41.240;16.500;2023-03-21T00:45:49;47.30;;;33.72;;
35418;SDS011;21525;41.240;16.500;2023-03-21T00:48:16;45.25;;;35.50;;
35418;SDS011;21525;41.240;16.500;2023-03-21T00:50:43;48.95;;;37.47;;
35418;SDS011;21525;41.240;16.500;2023-03-21T00:53:13;52.22;;;37.38;;
35418;SDS011;21525;41.240;16.500;2023-03-21T00:55:40;48.85;;;36.70;;
35418;SDS011;21525;41.240;16.500;2023-03-21T00:58:05;45.55;;;35.95;;
35418;SDS011;21525;41.240;16.500;2023-03-21T01:00:32;42.60;;;34.10;;
35418;SDS011;21525;41.240;16.500;2023-03-21T01:03:06;43.22;;;34.50;;
35418;SDS011;21525;41.240;16.500;2023-03-21T01:05:35;40.42;;;32.90;;
35418;SDS011;21525;41.240;16.500;2023-03-21T01:08:22;40.25;;;30.75;;
35418;SDS011;21525;41.240;16.500;2023-03-21T01:10:49;38.70;;;29.52;;
35418;SDS011;21525;41.240;16.500;2023-03-21T01:13:17;41.45;;;31.67;;
35418;SDS011;21525;41.240;16.500;2023-03-21T01:15:45;37.42;;;29.35;;
35418;SDS011;21525;41.240;16.500;2023-03-21T01:18:17;36.78;;;31.10;;
35418;SDS011;21525;41.240;16.500;2023-03-21T01:20:44;38.40;;;28.63;;
35418;SDS011;21525;41.240;16.500;2023-03-21T01:23:11;44.28;;;31.20;;
35418;SDS011;21525;41.240;16.500;2023-03-21T01:25:38;40.53;;;30.02;;
35418;SDS011;21525;41.240;16.500;2023-03-21T01:28:04;40.22;;;30.58;;
35418;SDS011;21525;41.240;16.500;2023-03-21T01:30:30;40.88;;;28.80;;
35418;SDS011;21525;41.240;16.500;2023-03-21T01:32:57;38.90;;;29.58;;
35418;SDS011;21525;41.240;16.500;2023-03-21T01:35:23;35.08;;;28.23;;
35418;SDS011;21525;41.240;16.500;2023-03-21T01:37:50;37.72;;;29.35;;
35418;SDS011;21525;41.240;16.500;2023-03-21T01:40:21;35.53;;;28.50;;
35418;SDS011;21525;41.240;16.500;2023-03-21T01:42:50;32.90;;;26.13;;
35418;SDS011;21525;41.240;16.500;2023-03-21T01:48:28;38.95;;;30.02;;
35418;SDS011;21525;41.240;16.500;2023-03-21T01:50:57;36.03;;;28.85;;
35418;SDS011;21525;41.240;16.500;2023-03-21T01:53:47;36.35;;;29.63;;
35418;SDS011;21525;41.240;16.500;2023-03-21T01:56:18;41.30;;;30.58;;
35418;SDS011;21525;41.240;16.500;2023-03-21T01:58:55;40.13;;;30.95;;
35418;SDS011;21525;41.240;16.500;2023-03-21T02:01:47;42.33;;;31.67;;
35418;SDS011;21525;41.240;16.500;2023-03-21T02:04:17;44.47;;;34.58;;
35418;SDS011;21525;41.240;16.500;2023-03-21T02:09:47;45.92;;;33.28;;
35418;SDS011;21525;41.240;16.500;2023-03-21T02:12:19;43.40;;;33.97;;
35418;SDS011;21525;41.240;16.500;2023-03-21T02:14:46;47.10;;;35.45;;
35418;SDS011;21525;41.240;16.500;2023-03-21T02:20:35;47.55;;;35.75;;
35418;SDS011;21525;41.240;16.500;2023-03-21T02:23:18;47.15;;;35.53;;
35418;SDS011;21525;41.240;16.500;2023-03-21T02:28:42;45.83;;;34.95;;
35418;SDS011;21525;41.240;16.500;2023-03-21T02:34:06;60.55;;;46.65;;
35418;SDS011;21525;41.240;16.500;2023-03-21T02:39:41;58.30;;;41.92;;
35418;SDS011;21525;41.240;16.500;2023-03-21T02:47:38;51.85;;;39.60;;
35418;SDS011;21525;41.240;16.500;2023-03-21T02:50:17;57.15;;;39.67;;
35418;SDS011;21525;41.240;16.500;2023-03-21T02:52:54;56.28;;;40.17;;
35418;SDS011;21525;41.240;16.500;2023-03-21T02:55:25;53.60;;;41.28;;
35418;SDS011;21525;41.240;16.500;2023-03-21T02:57:57;53.20;;;41.75;;
35418;SDS011;21525;41.240;16.500;2023-03-21T03:00:31;55.17;;;40.50;;
35418;SDS011;21525;41.240;16.500;2023-03-21T03:03:00;56.80;;;42.80;;
35418;SDS011;21525;41.240;16.500;2023-03-21T03:05:27;57.33;;;43.30;;
35418;SDS011;21525;41.240;16.500;2023-03-21T03:13:18;61.55;;;47.67;;
35418;SDS011;21525;41.240;16.500;2023-03-21T03:16:14;63.97;;;48.55;;
35418;SDS011;21525;41.240;16.500;2023-03-21T03:21:17;74.18;;;53.70;;
35418;SDS011;21525;41.240;16.500;2023-03-21T03:23:52;71.38;;;51.58;;
35418;SDS011;21525;41.240;16.500;2023-03-21T03:26:25;66.03;;;45.78;;
35418;SDS011;21525;41.240;16.500;2023-03-21T03:28:59;58.22;;;42.97;;
35418;SDS011;21525;41.240;16.500;2023-03-21T03:31:31;54.78;;;40.17;;
35418;SDS011;21525;41.240;16.500;2023-03-21T03:34:04;54.97;;;39.72;;
35418;SDS011;21525;41.240;16.500;2023-03-21T03:36:38;42.42;;;33.97;;
35418;SDS011;21525;41.240;16.500;2023-03-21T03:39:12;48.00;;;34.88;;
35418;SDS011;21525;41.240;16.500;2023-03-21T03:41:44;46.72;;;36.33;;
35418;SDS011;21525;41.240;16.500;2023-03-21T03:44:16;43.95;;;34.17;;
35418;SDS011;21525;41.240;16.500;2023-03-21T03:51:58;41.85;;;31.70;;
35418;SDS011;21525;41.240;16.500;2023-03-21T03:54:43;37.72;;;29.70;;
35418;SDS011;21525;41.240;16.500;2023-03-21T03:59:39;34.90;;;28.40;;
35418;SDS011;21525;41.240;16.500;2023-03-21T04:02:20;34.58;;;27.73;;
35418;SDS011;21525;41.240;16.500;2023-03-21T04:04:47;37.92;;;28.67;;
35418;SDS011;21525;41.240;16.500;2023-03-21T04:07:18;35.92;;;27.63;;
35418;SDS011;21525;41.240;16.500;2023-03-21T04:09:46;37.00;;;27.75;;
35418;SDS011;21525;41.240;16.500;2023-03-21T04:12:15;33.28;;;26.08;;
35418;SDS011;21525;41.240;16.500;2023-03-21T04:14:54;33.97;;;27.75;;
35418;SDS011;21525;41.240;16.500;2023-03-21T04:17:20;36.25;;;28.10;;
35418;SDS011;21525;41.240;16.500;2023-03-21T04:19:46;34.83;;;25.70;;
35418;SDS011;21525;41.240;16.500;2023-03-21T04:22:12;36.35;;;27.80;;
35418;SDS011;21525;41.240;16.500;2023-03-21T04:24:41;32.92;;;27.63;;
35418;SDS011;21525;41.240;16.500;2023-03-21T04:27:07;33.88;;;27.08;;
35418;SDS011;21525;41.240;16.500;2023-03-21T04:29:38;36.13;;;27.38;;
35418;SDS011;21525;41.240;16.500;2023-03-21T04:32:20;36.75;;;28.25;;
35418;SDS011;21525;41.240;16.500;2023-03-21T04:34:56;32.55;;;27.17;;
35418;SDS011;21525;41.240;16.500;2023-03-21T04:37:23;31.55;;;25.52;;
35418;SDS011;21525;41.240;16.500;2023-03-21T04:39:50;38.63;;;27.52;;
35418;SDS011;21525;41.240;16.500;2023-03-21T04:42:16;39.55;;;29.10;;
35418;SDS011;21525;41.240;16.500;2023-03-21T04:44:47;37.67;;;27.95;;
35418;SDS011;21525;41.240;16.500;2023-03-21T04:47:14;37.97;;;29.23;;
35418;SDS011;21525;41.240;16.500;2023-03-21T04:49:46;38.22;;;30.38;;
35418;SDS011;21525;41.240;16.500;2023-03-21T04:52:14;40.75;;;32.28;;
35418;SDS011;21525;41.240;16.500;2023-03-21T04:54:40;43.05;;;34.63;;
35418;SDS011;21525;41.240;16.500;2023-03-21T04:57:06;46.22;;;34.58;;
35418;SDS011;21525;41.240;16.500;2023-03-21T04:59:33;47.70;;;37.17;;
35418;SDS011;21525;41.240;16.500;2023-03-21T05:01:59;51.20;;;37.85;;
35418;SDS011;21525;41.240;16.500;2023-03-21T05:04:25;48.47;;;38.72;;
35418;SDS011;21525;41.240;16.500;2023-03-21T05:06:51;46.40;;;36.00;;
35418;SDS011;21525;41.240;16.500;2023-03-21T05:09:18;44.08;;;33.95;;
35418;SDS011;21525;41.240;16.500;2023-03-21T05:11:44;46.03;;;36.83;;
35418;SDS011;21525;41.240;16.500;2023-03-21T05:14:14;46.78;;;37.60;;
35418;SDS011;21525;41.240;16.500;2023-03-21T05:16:42;50.33;;;40.50;;
35418;SDS011;21525;41.240;16.500;2023-03-21T05:19:19;50.30;;;39.70;;
35418;SDS011;21525;41.240;16.500;2023-03-21T05:21:48;49.83;;;40.78;;
35418;SDS011;21525;41.240;16.500;2023-03-21T05:24:19;51.42;;;38.78;;
35418;SDS011;21525;41.240;16.500;2023-03-21T05:26:46;46.10;;;35.85;;
35418;SDS011;21525;41.240;16.500;2023-03-21T05:29:16;45.60;;;35.53;;
35418;SDS011;21525;41.240;16.500;2023-03-21T05:31:48;46.30;;;35.90;;
35418;SDS011;21525;41.240;16.500;2023-03-21T05:34:14;44.42;;;34.33;;
35418;SDS011;21525;41.240;16.500;2023-03-21T05:36:41;43.08;;;33.17;;
35418;SDS011;21525;41.240;16.500;2023-03-21T05:39:09;40.13;;;31.60;;
35418;SDS011;21525;41.240;16.500;2023-03-21T05:41:39;40.47;;;30.60;;
35418;SDS011;21525;41.240;16.500;2023-03-21T05:44:05;39.53;;;29.70;;
35418;SDS011;21525;41.240;16.500;2023-03-21T05:46:31;38.90;;;30.25;;
35418;SDS011;21525;41.240;16.500;2023-03-21T05:48:57;36.05;;;28.67;;
35418;SDS011;21525;41.240;16.500;2023-03-21T05:51:24;36.15;;;28.33;;
35418;SDS011;21525;41.240;16.500;2023-03-21T05:53:49;39.22;;;29.00;;
35418;SDS011;21525;41.240;16.500;2023-03-21T05:56:16;36.78;;;28.42;;
35418;SDS011;21525;41.240;16.500;2023-03-21T05:58:49;40.22;;;28.95;;
35418;SDS011;21525;41.240;16.500;2023-03-21T06:01:16;33.80;;;26.83;;
35418;SDS011;21525;41.240;16.500;2023-03-21T06:03:49;34.80;;;27.05;;
35418;SDS011;21525;41.240;16.500;2023-03-21T06:06:19;30.23;;;24.38;;
35418;SDS011;21525;41.240;16.500;2023-03-21T06:08:58;29.70;;;24.58;;
35418;SDS011;21525;41.240;16.500;2023-03-21T06:11:30;34.03;;;26.58;;
35418;SDS011;21525;41.240;16.500;2023-03-21T06:14:17;33.05;;;24.77;;
35418;SDS011;21525;41.240;16.500;2023-03-21T06:16:54;31.05;;;24.45;;
35418;SDS011;21525;41.240;16.500;2023-03-21T06:19:20;30.45;;;23.60;;
35418;SDS011;21525;41.240;16.500;2023-03-21T06:24:27;30.30;;;23.48;;
35418;SDS011;21525;41.240;16.500;2023-03-21T06:26:53;28.15;;;22.23;;
35418;SDS011;21525;41.240;16.500;2023-03-21T06:29:19;30.15;;;24.88;;
35418;SDS011;21525;41.240;16.500;2023-03-21T06:31:47;28.77;;;22.23;;
35418;SDS011;21525;41.240;16.500;2023-03-21T06:34:14;27.98;;;22.67;;
35418;SDS011;21525;41.240;16.500;2023-03-21T06:36:40;27.13;;;22.33;;
35418;SDS011;21525;41.240;16.500;2023-03-21T06:39:09;29.40;;;21.42;;
35418;SDS011;21525;41.240;16.500;2023-03-21T06:41:38;27.38;;;21.83;;
35418;SDS011;21525;41.240;16.500;2023-03-21T06:44:04;26.52;;;21.73;;
35418;SDS011;21525;41.240;16.500;2023-03-21T06:46:35;28.08;;;21.67;;
35418;SDS011;21525;41.240;16.500;2023-03-21T06:49:03;24.60;;;20.85;;
35418;SDS011;21525;41.240;16.500;2023-03-21T06:51:28;28.38;;;21.15;;
35418;SDS011;21525;41.240;16.500;2023-03-21T06:54:08;24.63;;;19.55;;
35418;SDS011;21525;41.240;16.500;2023-03-21T06:56:39;25.92;;;19.92;;
35418;SDS011;21525;41.240;16.500;2023-03-21T06:59:07;27.05;;;20.20;;
35418;SDS011;21525;41.240;16.500;2023-03-21T07:01:45;25.73;;;21.15;;
35418;SDS011;21525;41.240;16.500;2023-03-21T07:04:11;24.98;;;20.48;;
35418;SDS011;21525;41.240;16.500;2023-03-21T07:06:37;28.73;;;20.83;;
35418;SDS011;21525;41.240;16.500;2023-03-21T07:09:04;24.83;;;19.38;;
35418;SDS011;21525;41.240;16.500;2023-03-21T07:11:31;26.50;;;20.83;;
35418;SDS011;21525;41.240;16.500;2023-03-21T07:13:57;22.00;;;18.60;;
35418;SDS011;21525;41.240;16.500;2023-03-21T07:16:25;22.50;;;19.00;;
35418;SDS011;21525;41.240;16.500;2023-03-21T07:18:51;25.63;;;19.75;;
35418;SDS011;21525;41.240;16.500;2023-03-21T07:21:20;23.55;;;20.02;;
35418;SDS011;21525;41.240;16.500;2023-03-21T07:23:46;25.92;;;20.08;;
35418;SDS011;21525;41.240;16.500;2023-03-21T07:26:14;26.80;;;21.10;;
35418;SDS011;21525;41.240;16.500;2023-03-21T07:28:43;27.05;;;19.40;;
35418;SDS011;21525;41.240;16.500;2023-03-21T07:31:13;24.40;;;20.40;;
35418;SDS011;21525;41.240;16.500;2023-03-21T07:33:41;26.08;;;20.17;;
35418;SDS011;21525;41.240;16.500;2023-03-21T07:36:08;25.80;;;19.30;;
35418;SDS011;21525;41.240;16.500;2023-03-21T07:38:37;25.30;;;20.83;;
35418;SDS011;21525;41.240;16.500;2023-03-21T07:41:04;25.25;;;19.85;;
35418;SDS011;21525;41.240;16.500;2023-03-21T07:43:32;27.00;;;21.47;;
35418;SDS011;21525;41.240;16.500;2023-03-21T07:45:58;29.15;;;21.80;;
35418;SDS011;21525;41.240;16.500;2023-03-21T07:48:25;29.33;;;24.08;;
35418;SDS011;21525;41.240;16.500;2023-03-21T07:50:52;34.83;;;25.15;;
35418;SDS011;21525;41.240;16.500;2023-03-21T07:53:18;31.20;;;25.38;;
35418;SDS011;21525;41.240;16.500;2023-03-21T07:55:48;33.85;;;26.73;;
35418;SDS011;21525;41.240;16.500;2023-03-21T07:58:14;33.60;;;27.08;;
35418;SDS011;21525;41.240;16.500;2023-03-21T08:00:40;31.55;;;25.80;;
35418;SDS011;21525;41.240;16.500;2023-03-21T08:03:06;26.95;;;23.10;;
35418;SDS011;21525;41.240;16.500;2023-03-21T08:05:33;24.23;;;20.65;;
35418;SDS011;21525;41.240;16.500;2023-03-21T08:08:01;26.98;;;20.65;;
35418;SDS011;21525;41.240;16.500;2023-03-21T08:10:27;24.33;;;18.92;;
35418;SDS011;21525;41.240;16.500;2023-03-21T08:12:53;23.77;;;18.40;;
35418;SDS011;21525;41.240;16.500;2023-03-21T08:15:19;23.92;;;18.15;;
35418;SDS011;21525;41.240;16.500;2023-03-21T08:17:45;24.45;;;19.15;;
35418;SDS011;21525;41.240;16.500;2023-03-21T08:20:11;26.25;;;19.40;;
35418;SDS011;21525;41.240;16.500;2023-03-21T08:22:40;33.05;;;25.48;;
35418;SDS011;21525;41.240;16.500;2023-03-21T08:25:06;30.00;;;23.55;;
35418;SDS011;21525;41.240;16.500;2023-03-21T08:27:34;28.70;;;21.70;;
35418;SDS011;21525;41.240;16.500;2023-03-21T08:30:00;23.48;;;19.35;;
35418;SDS011;21525;41.240;16.500;2023-03-21T08:32:26;12.13;;;8.68;;
35418;SDS011;21525;41.240;16.500;2023-03-21T08:34:56;8.60;;;5.40;;
35418;SDS011;21525;41.240;16.500;2023-03-21T08:37:23;8.07;;;4.18;;
35418;SDS011;21525;41.240;16.500;2023-03-21T08:39:49;5.38;;;3.75;;
35418;SDS011;21525;41.240;16.500;2023-03-21T08:42:16;3.10;;;2.25;;
35418;SDS011;21525;41.240;16.500;2023-03-21T08:44:42;9.95;;;3.30;;
35418;SDS011;21525;41.240;16.500;2023-03-21T08:47:08;5.88;;;3.45;;
35418;SDS011;21525;41.240;16.500;2023-03-21T08:49:34;5.22;;;3.40;;
35418;SDS011;21525;41.240;16.500;2023-03-21T08:52:00;11.80;;;6.68;;
35418;SDS011;21525;41.240;16.500;2023-03-21T08:54:26;8.40;;;3.75;;
35418;SDS011;21525;41.240;16.500;2023-03-21T08:56:53;7.30;;;4.30;;
35418;SDS011;21525;41.240;16.500;2023-03-21T08:59:19;7.85;;;4.07;;
35418;SDS011;21525;41.240;16.500;2023-03-21T09:01:45;5.63;;;2.70;;
35418;SDS011;21525;41.240;16.500;2023-03-21T09:04:11;9.00;;;6.22;;
35418;SDS011;21525;41.240;16.500;2023-03-21T09:06:38;14.32;;;9.05;;
35418;SDS011;21525;41.240;16.500;2023-03-21T09:09:13;8.88;;;6.05;;
35418;SDS011;21525;41.240;16.500;2023-03-21T09:11:39;6.32;;;4.05;;
35418;SDS011;21525;41.240;16.500;2023-03-21T09:14:05;8.60;;;5.63;;
35418;SDS011;21525;41.240;16.500;2023-03-21T09:16:31;12.80;;;6.25;;
35418;SDS011;21525;41.240;16.500;2023-03-21T09:18:57;8.32;;;4.75;;
35418;SDS011;21525;41.240;16.500;2023-03-21T09:21:24;9.50;;;5.40;;
35418;SDS011;21525;41.240;16.500;2023-03-21T09:23:53;8.07;;;4.45;;
35418;SDS011;21525;41.240;16.500;2023-03-21T09:26:21;8.90;;;4.22;;
35418;SDS011;21525;41.240;16.500;2023-03-21T09:28:48;8.45;;;4.05;;
35418;SDS011;21525;41.240;16.500;2023-03-21T09:31:14;9.68;;;4.32;;
35418;SDS011;21525;41.240;16.500;2023-03-21T09:33:49;5.22;;;3.20;;
35418;SDS011;21525;41.240;16.500;2023-03-21T09:36:16;4.82;;;2.92;;
35418;SDS011;21525;41.240;16.500;2023-03-21T09:38:46;7.30;;;3.00;;
35418;SDS011;21525;41.240;16.500;2023-03-21T09:46:43;8.68;;;5.85;;
35418;SDS011;21525;41.240;16.500;2023-03-21T09:49:33;8.48;;;3.97;;
35418;SDS011;21525;41.240;16.500;2023-03-21T09:52:08;7.85;;;3.60;;
35418;SDS011;21525;41.240;16.500;2023-03-21T09:54:42;8.48;;;2.88;;
35418;SDS011;21525;41.240;16.500;2023-03-21T09:59:49;5.25;;;3.05;;
35418;SDS011;21525;41.240;16.500;2023-03-21T10:07:24;8.48;;;3.95;;
35418;SDS011;21525;41.240;16.500;2023-03-21T10:09:55;9.23;;;3.30;;
35418;SDS011;21525;41.240;16.500;2023-03-21T10:12:24;6.85;;;3.60;;
35418;SDS011;21525;41.240;16.500;2023-03-21T10:14:55;6.70;;;5.00;;
35418;SDS011;21525;41.240;16.500;2023-03-21T10:22:35;3.65;;;2.60;;
35418;SDS011;21525;41.240;16.500;2023-03-21T10:25:02;5.85;;;3.03;;
35418;SDS011;21525;41.240;16.500;2023-03-21T10:27:29;6.03;;;3.75;;
35418;SDS011;21525;41.240;16.500;2023-03-21T10:29:56;7.57;;;5.28;;
35418;SDS011;21525;41.240;16.500;2023-03-21T10:32:22;10.52;;;4.88;;
35418;SDS011;21525;41.240;16.500;2023-03-21T10:34:49;6.15;;;3.42;;
35418;SDS011;21525;41.240;16.500;2023-03-21T10:37:19;10.25;;;6.28;;
35418;SDS011;21525;41.240;16.500;2023-03-21T10:39:48;13.73;;;8.18;;
35418;SDS011;21525;41.240;16.500;2023-03-21T10:42:20;10.98;;;4.85;;
35418;SDS011;21525;41.240;16.500;2023-03-21T10:44:50;9.70;;;3.00;;
35418;SDS011;21525;41.240;16.500;2023-03-21T10:47:22;9.88;;;7.15;;
35418;SDS011;21525;41.240;16.500;2023-03-21T10:49:50;7.05;;;3.35;;
35418;SDS011;21525;41.240;16.500;2023-03-21T10:52:18;44.47;;;6.80;;
35418;SDS011;21525;41.240;16.500;2023-03-21T10:54:46;5.32;;;2.83;;
35418;SDS011;21525;41.240;16.500;2023-03-21T10:57:19;6.90;;;2.75;;
35418;SDS011;21525;41.240;16.500;2023-03-21T11:02:33;7.97;;;3.92;;
35418;SDS011;21525;41.240;16.500;2023-03-21T11:05:23;4.78;;;2.80;;
35418;SDS011;21525;41.240;16.500;2023-03-21T11:07:55;9.40;;;4.15;;
35418;SDS011;21525;41.240;16.500;2023-03-21T11:10:59;11.75;;;4.97;;
35418;SDS011;21525;41.240;16.500;2023-03-21T11:18:43;8.90;;;5.65;;
35418;SDS011;21525;41.240;16.500;2023-03-21T11:21:14;9.85;;;5.53;;
35418;SDS011;21525;41.240;16.500;2023-03-21T11:23:43;10.18;;;5.38;;
35418;SDS011;21525;41.240;16.500;2023-03-21T11:26:32;13.85;;;8.57;;
35418;SDS011;21525;41.240;16.500;2023-03-21T11:31:42;17.15;;;8.27;;
35418;SDS011;21525;41.240;16.500;2023-03-21T11:34:19;9.57;;;5.65;;
35418;SDS011;21525;41.240;16.500;2023-03-21T11:36:52;11.45;;;6.50;;
35418;SDS011;21525;41.240;16.500;2023-03-21T11:39:36;9.18;;;5.20;;
35418;SDS011;21525;41.240;16.500;2023-03-21T11:42:23;11.95;;;5.85;;
35418;SDS011;21525;41.240;16.500;2023-03-21T11:47:40;9.27;;;4.07;;
35418;SDS011;21525;41.240;16.500;2023-03-21T11:50:16;13.93;;;4.43;;
35418;SDS011;21525;41.240;16.500;2023-03-21T12:06:36;7.72;;;4.60;;
35418;SDS011;21525;41.240;16.500;2023-03-21T12:09:17;6.32;;;4.15;;
35418;SDS011;21525;41.240;16.500;2023-03-21T12:11:59;8.43;;;3.80;;
35418;SDS011;21525;41.240;16.500;2023-03-21T12:18:39;5.20;;;3.05;;
35418;SDS011;21525;41.240;16.500;2023-03-21T12:20:42;6.75;;;4.03;;
35418;SDS011;21525;41.240;16.500;2023-03-21T12:31:22;5.60;;;3.05;;
35418;SDS011;21525;41.240;16.500;2023-03-21T12:39:29;4.00;;;2.03;;
35418;SDS011;21525;41.240;16.500;2023-03-21T12:44:25;4.53;;;2.70;;
35418;SDS011;21525;41.240;16.500;2023-03-21T12:46:54;8.55;;;3.05;;
35418;SDS011;21525;41.240;16.500;2023-03-21T12:51:57;8.27;;;4.40;;
35418;SDS011;21525;41.240;16.500;2023-03-21T12:54:39;4.38;;;2.95;;
35418;SDS011;21525;41.240;16.500;2023-03-21T12:57:15;12.00;;;3.38;;
35418;SDS011;21525;41.240;16.500;2023-03-21T13:02:30;7.68;;;3.25;;
35418;SDS011;21525;41.240;16.500;2023-03-21T13:08:00;6.43;;;2.45;;
35418;SDS011;21525;41.240;16.500;2023-03-21T13:10:32;3.80;;;2.40;;
35418;SDS011;21525;41.240;16.500;2023-03-21T13:21:12;3.28;;;1.80;;
35418;SDS011;21525;41.240;16.500;2023-03-21T13:23:59;4.30;;;2.25;;
35418;SDS011;21525;41.240;16.500;2023-03-21T13:26:32;7.90;;;2.70;;
35418;SDS011;21525;41.240;16.500;2023-03-21T13:29:20;4.20;;;1.77;;
35418;SDS011;21525;41.240;16.500;2023-03-21T13:31:49;5.65;;;1.70;;
35418;SDS011;21525;41.240;16.500;2023-03-21T13:34:19;5.53;;;2.10;;
35418;SDS011;21525;41.240;16.500;2023-03-21T13:36:47;5.10;;;2.20;;
35418;SDS011;21525;41.240;16.500;2023-03-21T13:39:23;4.55;;;2.72;;
35418;SDS011;21525;41.240;16.500;2023-03-21T13:41:52;4.65;;;1.80;;
35418;SDS011;21525;41.240;16.500;2023-03-21T13:50:19;6.57;;;2.33;;
35418;SDS011;21525;41.240;16.500;2023-03-21T13:55:45;4.57;;;2.33;;
35418;SDS011;21525;41.240;16.500;2023-03-21T14:03:57;6.05;;;2.95;;
35418;SDS011;21525;41.240;16.500;2023-03-21T14:06:30;6.10;;;2.03;;
35418;SDS011;21525;41.240;16.500;2023-03-21T14:09:00;2.92;;;1.80;;
35418;SDS011;21525;41.240;16.500;2023-03-21T14:11:28;5.15;;;1.90;;
35418;SDS011;21525;41.240;16.500;2023-03-21T14:13:57;5.70;;;2.17;;
35418;SDS011;21525;41.240;16.500;2023-03-21T14:16:25;3.90;;;2.15;;
35418;SDS011;21525;41.240;16.500;2023-03-21T14:18:56;5.22;;;2.40;;
35418;SDS011;21525;41.240;16.500;2023-03-21T14:21:27;5.75;;;2.30;;
35418;SDS011;21525;41.240;16.500;2023-03-21T14:24:05;6.57;;;3.22;;
35418;SDS011;21525;41.240;16.500;2023-03-21T14:26:39;3.83;;;1.90;;
35418;SDS011;21525;41.240;16.500;2023-03-21T14:29:07;6.25;;;2.35;;
35418;SDS011;21525;41.240;16.500;2023-03-21T14:31:40;2.58;;;1.92;;
35418;SDS011;21525;41.240;16.500;2023-03-21T14:34:07;4.72;;;1.90;;
35418;SDS011;21525;41.240;16.500;2023-03-21T14:36:37;4.30;;;2.20;;
35418;SDS011;21525;41.240;16.500;2023-03-21T14:41:32;4.13;;;2.42;;
35418;SDS011;21525;41.240;16.500;2023-03-21T14:46:38;2.17;;;1.52;;
35418;SDS011;21525;41.240;16.500;2023-03-21T14:49:25;3.90;;;1.45;;
35418;SDS011;21525;41.240;16.500;2023-03-21T14:51:53;4.65;;;2.08;;
35418;SDS011;21525;41.240;16.500;2023-03-21T14:54:21;3.42;;;2.13;;
35418;SDS011;21525;41.240;16.500;2023-03-21T14:56:49;3.72;;;1.95;;
35418;SDS011;21525;41.240;16.500;2023-03-21T14:59:19;4.57;;;2.80;;
35418;SDS011;21525;41.240;16.500;2023-03-21T15:01:48;7.20;;;3.05;;
35418;SDS011;21525;41.240;16.500;2023-03-21T15:04:16;8.90;;;4.43;;
35418;SDS011;21525;41.240;16.500;2023-03-21T15:06:53;3.15;;;1.80;;
35418;SDS011;21525;41.240;16.500;2023-03-21T15:09:25;3.92;;;2.33;;
35418;SDS011;21525;41.240;16.500;2023-03-21T15:11:54;4.78;;;1.85;;
35418;SDS011;21525;41.240;16.500;2023-03-21T15:14:28;4.50;;;2.03;;
35418;SDS011;21525;41.240;16.500;2023-03-21T15:16:58;6.45;;;2.58;;
35418;SDS011;21525;41.240;16.500;2023-03-21T15:19:33;7.40;;;3.90;;
35418;SDS011;21525;41.240;16.500;2023-03-21T15:24:50;6.07;;;3.53;;
35418;SDS011;21525;41.240;16.500;2023-03-21T15:27:23;10.95;;;3.72;;
35418;SDS011;21525;41.240;16.500;2023-03-21T15:29:50;10.45;;;5.80;;
35418;SDS011;21525;41.240;16.500;2023-03-21T15:32:22;5.65;;;3.90;;
35418;SDS011;21525;41.240;16.500;2023-03-21T15:34:50;7.32;;;3.65;;
35418;SDS011;21525;41.240;16.500;2023-03-21T15:37:25;7.45;;;4.38;;
35418;SDS011;21525;41.240;16.500;2023-03-21T15:39:52;12.30;;;5.03;;
35418;SDS011;21525;41.240;16.500;2023-03-21T15:42:24;8.43;;;4.28;;
35418;SDS011;21525;41.240;16.500;2023-03-21T15:44:57;8.18;;;5.32;;
35418;SDS011;21525;41.240;16.500;2023-03-21T15:50:37;11.75;;;4.90;;
35418;SDS011;21525;41.240;16.500;2023-03-21T15:53:06;9.53;;;4.53;;
35418;SDS011;21525;41.240;16.500;2023-03-21T15:55:41;11.43;;;5.78;;
35418;SDS011;21525;41.240;16.500;2023-03-21T15:58:15;7.28;;;4.03;;
35418;SDS011;21525;41.240;16.500;2023-03-21T16:00:54;7.10;;;3.92;;
35418;SDS011;21525;41.240;16.500;2023-03-21T16:13:53;9.10;;;4.80;;
35418;SDS011;21525;41.240;16.500;2023-03-21T16:16:24;6.68;;;3.78;;
35418;SDS011;21525;41.240;16.500;2023-03-21T16:18:51;12.57;;;5.65;;
35418;SDS011;21525;41.240;16.500;2023-03-21T16:21:20;10.15;;;5.70;;
35418;SDS011;21525;41.240;16.500;2023-03-21T16:23:47;10.75;;;6.43;;
35418;SDS011;21525;41.240;16.500;2023-03-21T16:26:16;11.20;;;7.75;;
35418;SDS011;21525;41.240;16.500;2023-03-21T16:28:46;7.75;;;5.40;;
35418;SDS011;21525;41.240;16.500;2023-03-21T16:31:13;7.50;;;4.47;;
35418;SDS011;21525;41.240;16.500;2023-03-21T16:33:40;7.70;;;4.85;;
35418;SDS011;21525;41.240;16.500;2023-03-21T16:38:53;8.48;;;5.00;;
35418;SDS011;21525;41.240;16.500;2023-03-21T16:41:21;10.02;;;6.05;;
35418;SDS011;21525;41.240;16.500;2023-03-21T16:43:48;12.80;;;6.25;;
35418;SDS011;21525;41.240;16.500;2023-03-21T16:46:18;11.98;;;7.00;;
35418;SDS011;21525;41.240;16.500;2023-03-21T16:48:49;9.82;;;6.97;;
35418;SDS011;21525;41.240;16.500;2023-03-21T16:51:21;11.27;;;7.13;;
35418;SDS011;21525;41.240;16.500;2023-03-21T16:53:54;9.43;;;6.07;;
35418;SDS011;21525;41.240;16.500;2023-03-21T16:56:21;8.93;;;6.05;;
35418;SDS011;21525;41.240;16.500;2023-03-21T16:58:55;9.85;;;6.35;;
35418;SDS011;21525;41.240;16.500;2023-03-21T17:01:22;10.90;;;6.82;;
35418;SDS011;21525;41.240;16.500;2023-03-21T17:03:52;9.70;;;7.15;;
35418;SDS011;21525;41.240;16.500;2023-03-21T17:06:19;15.23;;;10.73;;
35418;SDS011;21525;41.240;16.500;2023-03-21T17:08:47;12.50;;;7.18;;
35418;SDS011;21525;41.240;16.500;2023-03-21T17:11:14;9.13;;;5.88;;
35418;SDS011;21525;41.240;16.500;2023-03-21T17:16:12;9.80;;;6.05;;
35418;SDS011;21525;41.240;16.500;2023-03-21T17:18:39;7.75;;;5.75;;
35418;SDS011;21525;41.240;16.500;2023-03-21T17:21:10;14.13;;;8.98;;